Pagrindinis puslapis
METAR-TAF:

METAR-TAF

Oro uostai :

Debrecenas, Vengrija

platuma: 47-29N, ilguma: 021-36E, Aukštis: 108 m

Dabartinis oras

Ataskaita buvo paskelbta 45 minutes, ne 18:45 UTC
Vėjas 4 kt iš Rytų/Šiaurės Rytų
Temperatūra 5°C
Drėgmė 93%
Slėgis 1020 hPa
Matomumas: 9000 m

METAR: LHDC 221845Z AUTO 06004KT 9000 NCD 05/04 Q1020 TEMPO 4000 BR

Laikas: 21:30 (19:30 UTC)

Prognozė

Ataskaita buvo paskelbta 2 valandos ir 15 minutes, ne 17:15 UTC
Prognozė galioja nuo 22 metu 18 UTC su 23 metu 03 UTC
Vėjas 4 kt iš Rytų
Matomumas 10 km arba daugiau
nėra debesų žemiau 1500 m ir nėra kamuolinių lietaus debesų
Laikinai
nuo 22 metu 18 UTC su 22 metu 22 UTC
Išsisklaidę debesys ne aukštis 3000 ft
Laikinai
nuo 22 metu 23 UTC su 23 metu 02 UTC
Matomumas: 4000 m
rūkana
Tapsmas
nuo 23 metu 01 UTC su 23 metu 03 UTC
Vėjas 11 kt iš Šiaurės/Šiaurės Rytų

TAF: LHDC 221715Z 2218/2303 08004KT CAVOK TEMPO 2218/2222 SCT030 TEMPO 2223/2302 4000 BR BECMG 2301/2303 03011KT

Orai ataskaitas ir orų prognozės (METAR, TAF).

turimą stotys yra geltonos ir raudonos taškus žemėlapyje.

Perkelti pele per norėdami pamatyti stoties vardą.

Tada spustelėkite, norėdami matyti oro stebėjimo ir prognozės.

Norėdami pakeisti žemėlapį: spustelėkite ant žalios mygtukų su juodo kryžiaus žemyn,; žalią mygtuką su brūkšneliu, jei norite nutolinti; arba žalių rodyklių gretimoms žemėlapius.


METAR-TAF: